Eastbourne, New Zealand
Current Conditions -  °F | °C
As of 2:30 PM on Wednesday 26 Nov 2014 (Local Time) from NZWN Reporting Station
Clear Clear  
Wind Chill: 68°   Ceiling: Unl
Heat Index: 68°   Visibility: 6mi
Dew Point: 52°   Wind: 29mph
Humidity: 56%   Direction: 10°N
Pressure: 29.68"   Gusts: NA
Location:  41.29°S, 174.89°E
Report Text: NZWN 260130Z AUTO 01025KT 9999 NCD 20/11 Q1005 NOSIG
Loading
Personal Weather Stations






























Interactive Weather Map New forecast layout! Learn more

10-Day Weather Forecast

Advertisements
Track Severe Weather on mobile